sensor_id;sensor_type;location;lat;lon;timestamp;pressure;altitude;pressure_sealevel;temperature;humidity
5679;BME280;2862;52.560;13.566;2023-05-20T00:01:19;101812.91;;;10.75;83.17
5679;BME280;2862;52.560;13.566;2023-05-20T00:11:24;101808.84;;;10.82;83.43
5679;BME280;2862;52.560;13.566;2023-05-20T00:21:28;101801.59;;;10.57;86.38
5679;BME280;2862;52.560;13.566;2023-05-20T00:31:32;101809.34;;;10.47;87.63
5679;BME280;2862;52.560;13.566;2023-05-20T00:41:36;101807.13;;;10.54;87.37
5679;BME280;2862;52.560;13.566;2023-05-20T00:51:41;101818.13;;;10.49;88.33
5679;BME280;2862;52.560;13.566;2023-05-20T01:01:44;101805.97;;;10.58;87.73
5679;BME280;2862;52.560;13.566;2023-05-20T01:11:54;101790.91;;;10.57;88.27
5679;BME280;2862;52.560;13.566;2023-05-20T01:22:00;101790.72;;;10.33;90.18
5679;BME280;2862;52.560;13.566;2023-05-20T01:32:09;101776.66;;;10.29;90.52
5679;BME280;2862;52.560;13.566;2023-05-20T01:42:14;101780.47;;;10.40;89.31
5679;BME280;2862;52.560;13.566;2023-05-20T01:52:19;101775.81;;;10.29;90.81
5679;BME280;2862;52.560;13.566;2023-05-20T02:02:23;101769.41;;;10.31;90.27
5679;BME280;2862;52.560;13.566;2023-05-20T02:12:28;101773.53;;;10.08;92.23
5679;BME280;2862;52.560;13.566;2023-05-20T02:22:32;101768.34;;;9.93;92.88
5679;BME280;2862;52.560;13.566;2023-05-20T02:32:41;101764.63;;;9.81;94.27
5679;BME280;2862;52.560;13.566;2023-05-20T02:42:49;101760.00;;;9.97;92.11
5679;BME280;2862;52.560;13.566;2023-05-20T02:52:54;101773.97;;;9.88;91.99
5679;BME280;2862;52.560;13.566;2023-05-20T03:02:58;101770.44;;;9.73;93.86
5679;BME280;2862;52.560;13.566;2023-05-20T03:13:04;101776.91;;;9.83;92.74
5679;BME280;2862;52.560;13.566;2023-05-20T03:23:11;101783.41;;;9.79;92.76
5679;BME280;2862;52.560;13.566;2023-05-20T03:33:15;101785.78;;;9.55;95.06
5679;BME280;2862;52.560;13.566;2023-05-20T03:43:19;101792.38;;;9.93;92.67
5679;BME280;2862;52.560;13.566;2023-05-20T03:53:24;101799.44;;;9.65;94.96
5679;BME280;2862;52.560;13.566;2023-05-20T04:03:28;101800.84;;;9.99;93.86
5679;BME280;2862;52.560;13.566;2023-05-20T04:13:34;101797.22;;;10.00;95.53
5679;BME280;2862;52.560;13.566;2023-05-20T04:23:37;101787.53;;;10.26;94.91
5679;BME280;2862;52.560;13.566;2023-05-20T04:33:41;101792.41;;;10.34;95.98
5679;BME280;2862;52.560;13.566;2023-05-20T04:43:45;101778.69;;;10.53;96.33
5679;BME280;2862;52.560;13.566;2023-05-20T04:53:51;101788.66;;;10.90;94.87
5679;BME280;2862;52.560;13.566;2023-05-20T05:03:54;101781.94;;;11.10;95.33
5679;BME280;2862;52.560;13.566;2023-05-20T05:13:59;101784.28;;;11.15;95.78
5679;BME280;2862;52.560;13.566;2023-05-20T05:24:03;101785.06;;;11.30;96.53
5679;BME280;2862;52.560;13.566;2023-05-20T05:34:07;101782.72;;;11.25;97.33
5679;BME280;2862;52.560;13.566;2023-05-20T05:44:11;101785.69;;;11.33;97.22
5679;BME280;2862;52.560;13.566;2023-05-20T05:54:16;101781.31;;;11.45;96.92
5679;BME280;2862;52.560;13.566;2023-05-20T06:04:21;101758.22;;;11.81;94.54
5679;BME280;2862;52.560;13.566;2023-05-20T06:14:28;101759.63;;;11.74;95.64
5679;BME280;2862;52.560;13.566;2023-05-20T06:24:33;101765.53;;;11.79;95.18
5679;BME280;2862;52.560;13.566;2023-05-20T06:34:39;101764.09;;;12.11;93.72
5679;BME280;2862;52.560;13.566;2023-05-20T06:44:42;101771.31;;;11.85;94.93
5679;BME280;2862;52.560;13.566;2023-05-20T06:54:56;101749.97;;;11.96;94.02
5679;BME280;2862;52.560;13.566;2023-05-20T07:04:59;101757.75;;;12.12;93.11
5679;BME280;2862;52.560;13.566;2023-05-20T07:15:04;101756.50;;;12.29;92.20
5679;BME280;2862;52.560;13.566;2023-05-20T07:25:09;101747.59;;;12.53;90.57
5679;BME280;2862;52.560;13.566;2023-05-20T07:35:13;101749.63;;;12.73;89.49
5679;BME280;2862;52.560;13.566;2023-05-20T07:45:17;101757.84;;;12.83;89.89
5679;BME280;2862;52.560;13.566;2023-05-20T07:55:22;101733.25;;;13.11;88.33
5679;BME280;2862;52.560;13.566;2023-05-20T08:05:26;101726.75;;;13.26;86.89
5679;BME280;2862;52.560;13.566;2023-05-20T08:15:31;101716.47;;;13.76;85.17
5679;BME280;2862;52.560;13.566;2023-05-20T08:25:35;101707.91;;;14.69;79.73
5679;BME280;2862;52.560;13.566;2023-05-20T08:35:40;101735.56;;;14.28;80.52
5679;BME280;2862;52.560;13.566;2023-05-20T08:45:43;101689.69;;;14.61;79.52
5679;BME280;2862;52.560;13.566;2023-05-20T08:55:52;101699.47;;;14.30;80.57
5679;BME280;2862;52.560;13.566;2023-05-20T09:06:03;101686.53;;;14.56;80.22
5679;BME280;2862;52.560;13.566;2023-05-20T09:16:08;101686.31;;;14.80;79.02
5679;BME280;2862;52.560;13.566;2023-05-20T09:26:11;101690.94;;;14.99;78.04
5679;BME280;2862;52.560;13.566;2023-05-20T09:36:16;101679.44;;;14.55;79.62
5679;BME280;2862;52.560;13.566;2023-05-20T09:46:19;101699.34;;;14.64;80.02
5679;BME280;2862;52.560;13.566;2023-05-20T09:56:25;101692.50;;;15.02;78.39
5679;BME280;2862;52.560;13.566;2023-05-20T10:06:45;101682.41;;;14.73;80.31
5679;BME280;2862;52.560;13.566;2023-05-20T10:17:00;101679.41;;;14.87;79.79
5679;BME280;2862;52.560;13.566;2023-05-20T10:27:10;101667.03;;;15.06;79.22
5679;BME280;2862;52.560;13.566;2023-05-20T10:37:26;101661.59;;;15.27;75.68
5679;BME280;2862;52.560;13.566;2023-05-20T10:47:29;101672.56;;;15.75;73.91
5679;BME280;2862;52.560;13.566;2023-05-20T10:57:34;101671.47;;;15.78;72.77
5679;BME280;2862;52.560;13.566;2023-05-20T11:07:36;101623.34;;;16.22;71.82
5679;BME280;2862;52.560;13.566;2023-05-20T11:17:52;101631.19;;;16.25;71.71
5679;BME280;2862;52.560;13.566;2023-05-20T11:27:55;101613.63;;;16.67;69.99
5679;BME280;2862;52.560;13.566;2023-05-20T11:38:02;101610.97;;;16.77;69.05
5679;BME280;2862;52.560;13.566;2023-05-20T11:48:06;101622.47;;;16.69;69.38
5679;BME280;2862;52.560;13.566;2023-05-20T11:58:14;101606.38;;;16.87;68.74
5679;BME280;2862;52.560;13.566;2023-05-20T12:08:17;101590.91;;;16.60;69.91
5679;BME280;2862;52.560;13.566;2023-05-20T12:18:22;101584.38;;;16.63;70.67
5679;BME280;2862;52.560;13.566;2023-05-20T12:28:25;101570.94;;;17.28;66.98
5679;BME280;2862;52.560;13.566;2023-05-20T12:38:29;101579.09;;;17.45;67.86
5679;BME280;2862;52.560;13.566;2023-05-20T12:48:32;101551.06;;;17.19;68.57
5679;BME280;2862;52.560;13.566;2023-05-20T12:58:36;101549.75;;;16.95;68.99
5679;BME280;2862;52.560;13.566;2023-05-20T13:08:39;101534.34;;;17.06;69.55
5679;BME280;2862;52.560;13.566;2023-05-20T13:18:43;101517.31;;;16.95;69.11
5679;BME280;2862;52.560;13.566;2023-05-20T13:28:46;101482.66;;;17.36;67.64
5679;BME280;2862;52.560;13.566;2023-05-20T13:38:50;101480.41;;;17.32;68.67
5679;BME280;2862;52.560;13.566;2023-05-20T13:48:53;101478.88;;;17.65;67.89
5679;BME280;2862;52.560;13.566;2023-05-20T13:58:57;101465.91;;;17.50;68.01
5679;BME280;2862;52.560;13.566;2023-05-20T14:09:01;101460.97;;;17.46;68.36
5679;BME280;2862;52.560;13.566;2023-05-20T14:19:06;101436.91;;;17.96;66.45
5679;BME280;2862;52.560;13.566;2023-05-20T14:29:09;101447.56;;;17.98;67.58
5679;BME280;2862;52.560;13.566;2023-05-20T14:39:13;101414.75;;;18.27;65.33
5679;BME280;2862;52.560;13.566;2023-05-20T14:49:17;101439.47;;;18.24;64.73
5679;BME280;2862;52.560;13.566;2023-05-20T14:59:22;101404.19;;;18.42;65.90
5679;BME280;2862;52.560;13.566;2023-05-20T15:09:25;101415.88;;;18.16;66.91
5679;BME280;2862;52.560;13.566;2023-05-20T15:19:30;101408.22;;;18.38;66.34
5679;BME280;2862;52.560;13.566;2023-05-20T15:29:33;101374.94;;;18.53;66.69
5679;BME280;2862;52.560;13.566;2023-05-20T15:39:37;101377.19;;;18.66;66.04
5679;BME280;2862;52.560;13.566;2023-05-20T15:49:40;101372.91;;;18.55;66.17
5679;BME280;2862;52.560;13.566;2023-05-20T15:59:45;101348.78;;;18.70;65.88
5679;BME280;2862;52.560;13.566;2023-05-20T16:09:48;101332.91;;;18.83;65.93
5679;BME280;2862;52.560;13.566;2023-05-20T16:19:52;101328.00;;;19.03;65.88
5679;BME280;2862;52.560;13.566;2023-05-20T16:29:55;101304.97;;;19.07;64.51
5679;BME280;2862;52.560;13.566;2023-05-20T16:39:59;101292.97;;;19.10;64.69
5679;BME280;2862;52.560;13.566;2023-05-20T16:50:02;101306.31;;;19.20;64.25
5679;BME280;2862;52.560;13.566;2023-05-20T17:00:08;101291.75;;;19.21;64.32
5679;BME280;2862;52.560;13.566;2023-05-20T17:10:11;101285.31;;;19.22;64.36
5679;BME280;2862;52.560;13.566;2023-05-20T17:20:15;101275.81;;;19.34;64.46
5679;BME280;2862;52.560;13.566;2023-05-20T17:30:19;101281.41;;;19.24;64.09
5679;BME280;2862;52.560;13.566;2023-05-20T17:40:23;101278.69;;;19.24;64.80
5679;BME280;2862;52.560;13.566;2023-05-20T17:50:26;101278.19;;;19.13;65.44
5679;BME280;2862;52.560;13.566;2023-05-20T18:00:31;101274.81;;;19.02;66.25
5679;BME280;2862;52.560;13.566;2023-05-20T18:10:34;101269.22;;;18.71;68.28
5679;BME280;2862;52.560;13.566;2023-05-20T18:20:39;101266.78;;;18.60;69.10
5679;BME280;2862;52.560;13.566;2023-05-20T18:30:42;101270.78;;;18.40;70.14
5679;BME280;2862;52.560;13.566;2023-05-20T18:40:46;101264.34;;;18.33;70.57
5679;BME280;2862;52.560;13.566;2023-05-20T18:50:49;101285.78;;;18.18;71.83
5679;BME280;2862;52.560;13.566;2023-05-20T19:00:53;101284.34;;;17.97;73.27
5679;BME280;2862;52.560;13.566;2023-05-20T19:10:57;101292.19;;;17.74;74.49
5679;BME280;2862;52.560;13.566;2023-05-20T19:21:01;101304.44;;;17.61;75.54
5679;BME280;2862;52.560;13.566;2023-05-20T19:31:03;101297.72;;;17.47;76.70
5679;BME280;2862;52.560;13.566;2023-05-20T19:41:08;101307.16;;;17.43;77.35
5679;BME280;2862;52.560;13.566;2023-05-20T19:51:14;101312.69;;;17.33;77.94
5679;BME280;2862;52.560;13.566;2023-05-20T20:01:18;101311.03;;;17.40;77.75
5679;BME280;2862;52.560;13.566;2023-05-20T20:11:22;101310.91;;;17.24;78.30
5679;BME280;2862;52.560;13.566;2023-05-20T20:21:31;101307.81;;;17.19;78.79
5679;BME280;2862;52.560;13.566;2023-05-20T20:31:33;101309.28;;;17.13;78.76
5679;BME280;2862;52.560;13.566;2023-05-20T20:41:38;101308.44;;;17.13;78.90
5679;BME280;2862;52.560;13.566;2023-05-20T20:51:46;101299.09;;;17.07;78.88
5679;BME280;2862;52.560;13.566;2023-05-20T21:01:51;101302.91;;;16.96;79.65
5679;BME280;2862;52.560;13.566;2023-05-20T21:11:54;101299.44;;;16.86;80.10
5679;BME280;2862;52.560;13.566;2023-05-20T21:21:59;101288.72;;;16.77;80.67
5679;BME280;2862;52.560;13.566;2023-05-20T21:32:02;101274.00;;;16.61;81.76
5679;BME280;2862;52.560;13.566;2023-05-20T21:42:07;101263.97;;;16.36;83.63
5679;BME280;2862;52.560;13.566;2023-05-20T21:52:10;101252.38;;;16.26;84.41
5679;BME280;2862;52.560;13.566;2023-05-20T22:02:14;101251.84;;;15.95;86.63
5679;BME280;2862;52.560;13.566;2023-05-20T22:12:18;101248.44;;;15.92;86.93
5679;BME280;2862;52.560;13.566;2023-05-20T22:22:25;101240.50;;;15.91;87.63
5679;BME280;2862;52.560;13.566;2023-05-20T22:32:30;101225.28;;;15.72;88.92
5679;BME280;2862;52.560;13.566;2023-05-20T22:42:35;101222.75;;;15.61;89.74
5679;BME280;2862;52.560;13.566;2023-05-20T22:52:38;101224.91;;;15.48;90.72
5679;BME280;2862;52.560;13.566;2023-05-20T23:02:42;101224.38;;;15.44;91.31
5679;BME280;2862;52.560;13.566;2023-05-20T23:12:49;101222.56;;;15.25;92.35
5679;BME280;2862;52.560;13.566;2023-05-20T23:22:53;101208.72;;;15.10;93.77
5679;BME280;2862;52.560;13.566;2023-05-20T23:32:56;101198.19;;;15.17;93.86
5679;BME280;2862;52.560;13.566;2023-05-20T23:43:01;101193.97;;;15.14;94.41
5679;BME280;2862;52.560;13.566;2023-05-20T23:53:04;101187.75;;;15.14;94.15
